sensor_id;sensor_type;location;lat;lon;timestamp;pressure;altitude;pressure_sealevel;temperature;humidity
28911;BME280;16028;42.642;23.310;2023-03-15T00:00:47;93027.44;;;6.03;61.39
28911;BME280;16028;42.642;23.310;2023-03-15T00:03:14;93024.06;;;6.02;61.29
28911;BME280;16028;42.642;23.310;2023-03-15T00:05:41;93018.50;;;5.97;62.80
28911;BME280;16028;42.642;23.310;2023-03-15T00:08:08;93020.06;;;5.90;62.91
28911;BME280;16028;42.642;23.310;2023-03-15T00:10:38;93012.03;;;5.83;63.17
28911;BME280;16028;42.642;23.310;2023-03-15T00:13:05;93012.81;;;5.84;63.49
28911;BME280;16028;42.642;23.310;2023-03-15T00:15:33;93018.00;;;5.84;63.81
28911;BME280;16028;42.642;23.310;2023-03-15T00:17:59;93021.53;;;5.83;63.60
28911;BME280;16028;42.642;23.310;2023-03-15T00:20:27;93014.75;;;5.82;63.36
28911;BME280;16028;42.642;23.310;2023-03-15T00:22:53;93015.31;;;5.85;61.89
28911;BME280;16028;42.642;23.310;2023-03-15T00:25:20;93015.53;;;5.92;60.73
28911;BME280;16028;42.642;23.310;2023-03-15T00:27:47;93007.66;;;5.94;60.64
28911;BME280;16028;42.642;23.310;2023-03-15T00:30:13;93012.53;;;5.97;61.53
28911;BME280;16028;42.642;23.310;2023-03-15T00:32:41;93010.47;;;6.00;61.92
28911;BME280;16028;42.642;23.310;2023-03-15T00:35:09;93005.69;;;6.05;61.86
28911;BME280;16028;42.642;23.310;2023-03-15T00:37:37;93005.53;;;6.07;62.38
28911;BME280;16028;42.642;23.310;2023-03-15T00:40:04;93004.72;;;6.06;63.51
28911;BME280;16028;42.642;23.310;2023-03-15T00:42:31;93004.06;;;6.04;63.34
28911;BME280;16028;42.642;23.310;2023-03-15T00:44:58;93005.53;;;6.07;63.44
28911;BME280;16028;42.642;23.310;2023-03-15T00:47:24;92999.41;;;6.08;63.04
28911;BME280;16028;42.642;23.310;2023-03-15T00:49:52;92989.09;;;6.08;63.23
28911;BME280;16028;42.642;23.310;2023-03-15T00:52:19;92986.38;;;6.09;63.25
28911;BME280;16028;42.642;23.310;2023-03-15T00:54:49;92990.97;;;6.15;63.70
28911;BME280;16028;42.642;23.310;2023-03-15T00:57:17;92984.38;;;6.21;63.23
28911;BME280;16028;42.642;23.310;2023-03-15T00:59:44;92980.03;;;6.21;63.27
28911;BME280;16028;42.642;23.310;2023-03-15T01:02:10;92973.13;;;6.22;62.75
28911;BME280;16028;42.642;23.310;2023-03-15T01:04:37;92972.66;;;6.26;61.68
28911;BME280;16028;42.642;23.310;2023-03-15T01:07:05;92970.59;;;6.30;62.08
28911;BME280;16028;42.642;23.310;2023-03-15T01:09:32;92964.47;;;6.31;62.52
28911;BME280;16028;42.642;23.310;2023-03-15T01:11:58;92965.28;;;6.31;63.04
28911;BME280;16028;42.642;23.310;2023-03-15T01:14:25;92961.00;;;6.40;63.98
28911;BME280;16028;42.642;23.310;2023-03-15T01:16:51;92958.56;;;6.38;63.17
28911;BME280;16028;42.642;23.310;2023-03-15T01:19:18;92955.31;;;6.36;63.35
28911;BME280;16028;42.642;23.310;2023-03-15T01:21:44;92959.53;;;6.37;63.46
28911;BME280;16028;42.642;23.310;2023-03-15T01:24:13;92953.38;;;6.38;63.51
28911;BME280;16028;42.642;23.310;2023-03-15T01:26:40;92945.22;;;6.43;63.59
28911;BME280;16028;42.642;23.310;2023-03-15T01:29:06;92939.22;;;6.43;63.46
28911;BME280;16028;42.642;23.310;2023-03-15T01:31:33;92944.56;;;6.41;63.25
28911;BME280;16028;42.642;23.310;2023-03-15T01:33:59;92939.53;;;6.39;63.26
28911;BME280;16028;42.642;23.310;2023-03-15T01:36:26;92942.47;;;6.45;64.48
28911;BME280;16028;42.642;23.310;2023-03-15T01:38:53;92939.19;;;6.34;65.41
28911;BME280;16028;42.642;23.310;2023-03-15T01:41:21;92936.59;;;6.34;64.77
28911;BME280;16028;42.642;23.310;2023-03-15T01:43:50;92935.59;;;6.35;65.15
28911;BME280;16028;42.642;23.310;2023-03-15T01:46:20;92936.72;;;6.33;64.55
28911;BME280;16028;42.642;23.310;2023-03-15T01:48:49;92924.63;;;6.33;64.74
28911;BME280;16028;42.642;23.310;2023-03-15T01:51:17;92921.09;;;6.34;64.53
28911;BME280;16028;42.642;23.310;2023-03-15T01:53:48;92914.81;;;6.37;63.95
28911;BME280;16028;42.642;23.310;2023-03-15T01:56:17;92910.00;;;6.42;64.15
28911;BME280;16028;42.642;23.310;2023-03-15T01:58:45;92911.13;;;6.39;64.19
28911;BME280;16028;42.642;23.310;2023-03-15T02:01:13;92907.72;;;6.39;64.79
28911;BME280;16028;42.642;23.310;2023-03-15T02:03:42;92908.41;;;6.41;62.24
28911;BME280;16028;42.642;23.310;2023-03-15T02:06:11;92908.03;;;6.36;62.23
28911;BME280;16028;42.642;23.310;2023-03-15T02:08:43;92905.91;;;6.31;63.28
28911;BME280;16028;42.642;23.310;2023-03-15T02:11:10;92896.53;;;6.30;63.27
28911;BME280;16028;42.642;23.310;2023-03-15T02:13:39;92892.19;;;6.31;63.79
28911;BME280;16028;42.642;23.310;2023-03-15T02:16:07;92886.03;;;6.32;63.52
28911;BME280;16028;42.642;23.310;2023-03-15T02:18:34;92880.44;;;6.36;64.44
28911;BME280;16028;42.642;23.310;2023-03-15T02:21:04;92875.88;;;6.30;64.31
28911;BME280;16028;42.642;23.310;2023-03-15T02:23:33;92882.00;;;6.29;64.31
28911;BME280;16028;42.642;23.310;2023-03-15T02:26:01;92879.06;;;6.24;64.94
28911;BME280;16028;42.642;23.310;2023-03-15T02:28:31;92877.44;;;6.23;65.16
28911;BME280;16028;42.642;23.310;2023-03-15T02:30:59;92873.22;;;6.22;65.24
28911;BME280;16028;42.642;23.310;2023-03-15T02:33:26;92880.31;;;6.20;66.43
28911;BME280;16028;42.642;23.310;2023-03-15T02:35:54;92877.06;;;6.18;66.87
28911;BME280;16028;42.642;23.310;2023-03-15T02:38:21;92868.66;;;6.16;66.66
28911;BME280;16028;42.642;23.310;2023-03-15T02:40:48;92871.91;;;6.18;66.90
28911;BME280;16028;42.642;23.310;2023-03-15T02:43:19;92876.91;;;6.20;67.43
28911;BME280;16028;42.642;23.310;2023-03-15T02:45:48;92866.66;;;6.10;67.76
28911;BME280;16028;42.642;23.310;2023-03-15T02:48:15;92872.00;;;6.09;67.02
28911;BME280;16028;42.642;23.310;2023-03-15T02:50:42;92879.88;;;6.07;66.88
28911;BME280;16028;42.642;23.310;2023-03-15T02:53:09;92865.50;;;6.05;66.90
28911;BME280;16028;42.642;23.310;2023-03-15T02:55:36;92869.19;;;6.02;67.19
28911;BME280;16028;42.642;23.310;2023-03-15T02:58:03;92877.38;;;5.98;67.62
28911;BME280;16028;42.642;23.310;2023-03-15T03:00:30;92869.13;;;5.94;67.72
28911;BME280;16028;42.642;23.310;2023-03-15T03:02:57;92864.41;;;5.90;67.48
28911;BME280;16028;42.642;23.310;2023-03-15T03:05:24;92857.25;;;5.83;68.14
28911;BME280;16028;42.642;23.310;2023-03-15T03:07:51;92856.44;;;5.83;68.27
28911;BME280;16028;42.642;23.310;2023-03-15T03:10:18;92846.75;;;5.85;67.38
28911;BME280;16028;42.642;23.310;2023-03-15T03:12:45;92836.75;;;5.82;67.13
28911;BME280;16028;42.642;23.310;2023-03-15T03:15:13;92845.06;;;5.76;67.72
28911;BME280;16028;42.642;23.310;2023-03-15T03:17:40;92839.09;;;5.75;67.90
28911;BME280;16028;42.642;23.310;2023-03-15T03:20:09;92842.78;;;5.73;67.03
28911;BME280;16028;42.642;23.310;2023-03-15T03:22:37;92842.28;;;5.69;68.01
28911;BME280;16028;42.642;23.310;2023-03-15T03:25:04;92841.09;;;5.64;68.47
28911;BME280;16028;42.642;23.310;2023-03-15T03:27:31;92840.63;;;5.68;68.32
28911;BME280;16028;42.642;23.310;2023-03-15T03:30:00;92840.34;;;5.71;67.54
28911;BME280;16028;42.642;23.310;2023-03-15T03:32:27;92838.97;;;5.77;68.40
28911;BME280;16028;42.642;23.310;2023-03-15T03:34:53;92835.88;;;5.73;69.42
28911;BME280;16028;42.642;23.310;2023-03-15T03:37:21;92834.00;;;5.66;69.85
28911;BME280;16028;42.642;23.310;2023-03-15T03:39:48;92825.31;;;5.67;69.54
28911;BME280;16028;42.642;23.310;2023-03-15T03:42:14;92820.97;;;5.67;69.42
28911;BME280;16028;42.642;23.310;2023-03-15T03:44:41;92814.41;;;5.73;69.63
28911;BME280;16028;42.642;23.310;2023-03-15T03:47:07;92820.09;;;5.76;69.62
28911;BME280;16028;42.642;23.310;2023-03-15T03:49:34;92814.13;;;5.76;69.92
28911;BME280;16028;42.642;23.310;2023-03-15T03:52:00;92814.94;;;5.76;70.19
28911;BME280;16028;42.642;23.310;2023-03-15T03:54:29;92811.41;;;5.77;70.20
28911;BME280;16028;42.642;23.310;2023-03-15T03:56:56;92811.22;;;5.79;70.36
28911;BME280;16028;42.642;23.310;2023-03-15T03:59:22;92810.28;;;5.80;70.10
28911;BME280;16028;42.642;23.310;2023-03-15T04:01:49;92807.53;;;5.81;70.01
28911;BME280;16028;42.642;23.310;2023-03-15T04:04:16;92799.97;;;5.80;70.08
28911;BME280;16028;42.642;23.310;2023-03-15T04:06:42;92798.69;;;5.84;70.30
28911;BME280;16028;42.642;23.310;2023-03-15T04:09:10;92799.22;;;5.88;70.71
28911;BME280;16028;42.642;23.310;2023-03-15T04:11:38;92792.00;;;5.91;70.54
28911;BME280;16028;42.642;23.310;2023-03-15T04:14:06;92794.16;;;5.96;70.17
28911;BME280;16028;42.642;23.310;2023-03-15T04:16:33;92793.34;;;5.95;70.75
28911;BME280;16028;42.642;23.310;2023-03-15T04:18:59;92799.00;;;5.99;70.64
28911;BME280;16028;42.642;23.310;2023-03-15T04:21:26;92799.75;;;5.91;70.34
28911;BME280;16028;42.642;23.310;2023-03-15T04:23:56;92801.69;;;5.89;70.36
28911;BME280;16028;42.642;23.310;2023-03-15T04:26:22;92797.63;;;5.87;70.50
28911;BME280;16028;42.642;23.310;2023-03-15T04:28:52;92797.91;;;5.83;70.82
28911;BME280;16028;42.642;23.310;2023-03-15T04:31:18;92791.13;;;5.82;70.60
28911;BME280;16028;42.642;23.310;2023-03-15T04:33:45;92789.34;;;5.83;71.30
28911;BME280;16028;42.642;23.310;2023-03-15T04:36:11;92785.78;;;5.84;71.49
28911;BME280;16028;42.642;23.310;2023-03-15T04:38:42;92790.25;;;5.92;71.13
28911;BME280;16028;42.642;23.310;2023-03-15T04:41:11;92785.94;;;5.82;70.12
28911;BME280;16028;42.642;23.310;2023-03-15T04:43:37;92787.59;;;5.83;70.05
28911;BME280;16028;42.642;23.310;2023-03-15T04:46:05;92795.88;;;5.87;70.06
28911;BME280;16028;42.642;23.310;2023-03-15T04:48:32;92789.91;;;5.87;69.58
28911;BME280;16028;42.642;23.310;2023-03-15T04:50:58;92794.06;;;5.88;69.00
28911;BME280;16028;42.642;23.310;2023-03-15T04:53:25;92788.78;;;5.89;69.26
28911;BME280;16028;42.642;23.310;2023-03-15T04:55:51;92788.47;;;5.92;69.74
28911;BME280;16028;42.642;23.310;2023-03-15T04:58:18;92785.47;;;5.97;69.41
28911;BME280;16028;42.642;23.310;2023-03-15T05:00:45;92787.22;;;5.96;68.60
28911;BME280;16028;42.642;23.310;2023-03-15T05:03:13;92784.94;;;5.93;68.55
28911;BME280;16028;42.642;23.310;2023-03-15T05:05:39;92800.25;;;5.95;69.05
28911;BME280;16028;42.642;23.310;2023-03-15T05:08:06;92793.34;;;5.95;69.45
28911;BME280;16028;42.642;23.310;2023-03-15T05:10:32;92794.16;;;5.96;68.84
28911;BME280;16028;42.642;23.310;2023-03-15T05:12:59;92795.91;;;5.95;68.65
28911;BME280;16028;42.642;23.310;2023-03-15T05:15:26;92797.06;;;6.01;68.51
28911;BME280;16028;42.642;23.310;2023-03-15T05:17:52;92794.19;;;6.04;68.30
28911;BME280;16028;42.642;23.310;2023-03-15T05:20:21;92787.91;;;6.06;68.03
28911;BME280;16028;42.642;23.310;2023-03-15T05:22:50;92793.16;;;6.14;68.49
28911;BME280;16028;42.642;23.310;2023-03-15T05:25:17;92772.53;;;6.22;67.01
28911;BME280;16028;42.642;23.310;2023-03-15T05:27:44;92780.44;;;6.21;66.56
28911;BME280;16028;42.642;23.310;2023-03-15T05:30:12;92780.97;;;6.24;66.85
28911;BME280;16028;42.642;23.310;2023-03-15T05:32:39;92779.38;;;6.31;67.23
28911;BME280;16028;42.642;23.310;2023-03-15T05:35:09;92781.66;;;6.34;66.44
28911;BME280;16028;42.642;23.310;2023-03-15T05:37:37;92770.53;;;6.34;66.60
28911;BME280;16028;42.642;23.310;2023-03-15T05:40:05;92779.41;;;6.39;66.63
28911;BME280;16028;42.642;23.310;2023-03-15T05:42:33;92777.19;;;6.45;66.50
28911;BME280;16028;42.642;23.310;2023-03-15T05:44:59;92778.97;;;6.44;66.29
28911;BME280;16028;42.642;23.310;2023-03-15T05:47:26;92781.91;;;6.49;65.97
28911;BME280;16028;42.642;23.310;2023-03-15T05:49:52;92771.56;;;6.49;65.95
28911;BME280;16028;42.642;23.310;2023-03-15T05:52:19;92776.72;;;6.49;66.37
28911;BME280;16028;42.642;23.310;2023-03-15T05:54:47;92770.63;;;6.50;66.44
28911;BME280;16028;42.642;23.310;2023-03-15T05:57:14;92777.38;;;6.51;66.77
28911;BME280;16028;42.642;23.310;2023-03-15T05:59:40;92777.38;;;6.51;67.31
28911;BME280;16028;42.642;23.310;2023-03-15T06:02:07;92778.69;;;6.55;67.57
28911;BME280;16028;42.642;23.310;2023-03-15T06:04:35;92778.38;;;6.58;66.41
28911;BME280;16028;42.642;23.310;2023-03-15T06:07:02;92768.56;;;6.62;65.32
28911;BME280;16028;42.642;23.310;2023-03-15T06:09:31;92770.38;;;6.69;64.22
28911;BME280;16028;42.642;23.310;2023-03-15T06:11:59;92769.63;;;6.85;62.81
28911;BME280;16028;42.642;23.310;2023-03-15T06:14:26;92773.53;;;6.89;62.38
28911;BME280;16028;42.642;23.310;2023-03-15T06:16:52;92774.81;;;6.93;62.60
28911;BME280;16028;42.642;23.310;2023-03-15T06:19:19;92770.81;;;6.99;61.38
28911;BME280;16028;42.642;23.310;2023-03-15T06:21:46;92776.63;;;7.01;63.65
28911;BME280;16028;42.642;23.310;2023-03-15T06:24:15;92784.22;;;7.02;61.88
28911;BME280;16028;42.642;23.310;2023-03-15T06:26:41;92776.81;;;7.07;61.93
28911;BME280;16028;42.642;23.310;2023-03-15T06:29:09;92770.19;;;7.13;62.22
28911;BME280;16028;42.642;23.310;2023-03-15T06:31:35;92761.97;;;7.17;62.61
28911;BME280;16028;42.642;23.310;2023-03-15T06:34:02;92763.94;;;7.23;62.46
28911;BME280;16028;42.642;23.310;2023-03-15T06:36:29;92758.59;;;7.41;59.24
28911;BME280;16028;42.642;23.310;2023-03-15T06:38:56;92763.13;;;7.47;58.09
28911;BME280;16028;42.642;23.310;2023-03-15T06:41:22;92765.91;;;7.45;59.79
28911;BME280;16028;42.642;23.310;2023-03-15T06:43:49;92767.03;;;7.51;57.82
28911;BME280;16028;42.642;23.310;2023-03-15T06:46:17;92760.44;;;7.65;56.57
28911;BME280;16028;42.642;23.310;2023-03-15T06:48:43;92762.53;;;7.77;53.98
28911;BME280;16028;42.642;23.310;2023-03-15T06:51:10;92766.72;;;7.70;55.71
28911;BME280;16028;42.642;23.310;2023-03-15T06:53:36;92766.09;;;7.68;56.50
28911;BME280;16028;42.642;23.310;2023-03-15T06:56:03;92768.81;;;7.67;55.76
28911;BME280;16028;42.642;23.310;2023-03-15T06:58:30;92757.66;;;7.66;58.09
28911;BME280;16028;42.642;23.310;2023-03-15T07:00:56;92755.75;;;7.68;58.34
28911;BME280;16028;42.642;23.310;2023-03-15T07:03:24;92755.09;;;7.74;56.38
28911;BME280;16028;42.642;23.310;2023-03-15T07:05:51;92761.69;;;7.85;53.93
28911;BME280;16028;42.642;23.310;2023-03-15T07:08:18;92751.34;;;7.93;53.26
28911;BME280;16028;42.642;23.310;2023-03-15T07:10:45;92750.25;;;7.87;54.26
28911;BME280;16028;42.642;23.310;2023-03-15T07:13:12;92749.72;;;7.92;55.39
28911;BME280;16028;42.642;23.310;2023-03-15T07:15:39;92751.00;;;8.04;53.37
28911;BME280;16028;42.642;23.310;2023-03-15T07:18:05;92754.09;;;8.08;55.56
28911;BME280;16028;42.642;23.310;2023-03-15T07:20:33;92754.09;;;8.16;54.99
28911;BME280;16028;42.642;23.310;2023-03-15T07:23:00;92759.09;;;8.17;56.31
28911;BME280;16028;42.642;23.310;2023-03-15T07:25:26;92762.16;;;8.37;54.31
28911;BME280;16028;42.642;23.310;2023-03-15T07:27:53;92759.72;;;8.52;51.83
28911;BME280;16028;42.642;23.310;2023-03-15T07:30:19;92754.88;;;8.48;53.87
28911;BME280;16028;42.642;23.310;2023-03-15T07:32:46;92749.84;;;8.55;53.56
28911;BME280;16028;42.642;23.310;2023-03-15T07:35:13;92742.16;;;8.70;52.94
28911;BME280;16028;42.642;23.310;2023-03-15T07:37:42;92744.34;;;8.89;50.49
28911;BME280;16028;42.642;23.310;2023-03-15T07:40:09;92751.19;;;8.82;50.28
28911;BME280;16028;42.642;23.310;2023-03-15T07:42:36;92757.38;;;8.73;51.57
28911;BME280;16028;42.642;23.310;2023-03-15T07:45:03;92739.50;;;8.86;50.85
28911;BME280;16028;42.642;23.310;2023-03-15T07:47:30;92741.03;;;9.03;50.32
28911;BME280;16028;42.642;23.310;2023-03-15T07:49:56;92734.59;;;8.99;49.12
28911;BME280;16028;42.642;23.310;2023-03-15T07:52:23;92736.63;;;9.12;47.39
28911;BME280;16028;42.642;23.310;2023-03-15T07:54:51;92734.75;;;8.97;49.10
28911;BME280;16028;42.642;23.310;2023-03-15T07:57:17;92742.06;;;8.94;49.93
28911;BME280;16028;42.642;23.310;2023-03-15T07:59:44;92742.66;;;9.04;49.14
28911;BME280;16028;42.642;23.310;2023-03-15T08:02:11;92743.31;;;9.06;50.98
28911;BME280;16028;42.642;23.310;2023-03-15T08:04:38;92733.22;;;9.11;48.79
28911;BME280;16028;42.642;23.310;2023-03-15T08:07:05;92737.63;;;9.33;46.49
28911;BME280;16028;42.642;23.310;2023-03-15T08:09:31;92740.56;;;9.30;46.92
28911;BME280;16028;42.642;23.310;2023-03-15T08:12:00;92732.16;;;9.28;49.98
28911;BME280;16028;42.642;23.310;2023-03-15T08:14:27;92729.69;;;9.57;46.92
28911;BME280;16028;42.642;23.310;2023-03-15T08:16:55;92718.91;;;9.69;46.25
28911;BME280;16028;42.642;23.310;2023-03-15T08:19:22;92715.28;;;9.55;46.70
28911;BME280;16028;42.642;23.310;2023-03-15T08:21:48;92717.06;;;9.54;46.21
28911;BME280;16028;42.642;23.310;2023-03-15T08:24:18;92726.56;;;9.39;47.66
28911;BME280;16028;42.642;23.310;2023-03-15T08:26:45;92720.56;;;9.39;48.34
28911;BME280;16028;42.642;23.310;2023-03-15T08:29:13;92708.41;;;9.39;47.89
28911;BME280;16028;42.642;23.310;2023-03-15T08:31:39;92707.31;;;9.56;47.09
28911;BME280;16028;42.642;23.310;2023-03-15T08:34:06;92702.13;;;9.56;48.41
28911;BME280;16028;42.642;23.310;2023-03-15T08:36:33;92712.84;;;9.76;47.63
28911;BME280;16028;42.642;23.310;2023-03-15T08:38:59;92712.06;;;9.90;46.15
28911;BME280;16028;42.642;23.310;2023-03-15T08:41:29;92705.19;;;9.97;45.54
28911;BME280;16028;42.642;23.310;2023-03-15T08:43:55;92703.75;;;9.95;46.00
28911;BME280;16028;42.642;23.310;2023-03-15T08:46:24;92693.50;;;9.79;47.12
28911;BME280;16028;42.642;23.310;2023-03-15T08:48:51;92698.72;;;9.79;47.99
28911;BME280;16028;42.642;23.310;2023-03-15T08:51:17;92704.28;;;9.90;47.14
28911;BME280;16028;42.642;23.310;2023-03-15T08:53:46;92710.09;;;9.92;48.86
28911;BME280;16028;42.642;23.310;2023-03-15T08:56:12;92718.88;;;10.14;45.81
28911;BME280;16028;42.642;23.310;2023-03-15T08:58:39;92725.25;;;10.26;46.99
28911;BME280;16028;42.642;23.310;2023-03-15T09:01:05;92719.97;;;10.20;46.69
28911;BME280;16028;42.642;23.310;2023-03-15T09:03:33;92720.19;;;10.10;50.70
28911;BME280;16028;42.642;23.310;2023-03-15T09:06:00;92713.19;;;10.10;49.17
28911;BME280;16028;42.642;23.310;2023-03-15T09:08:26;92721.22;;;10.38;45.87
28911;BME280;16028;42.642;23.310;2023-03-15T09:10:53;92714.03;;;10.40;48.35
28911;BME280;16028;42.642;23.310;2023-03-15T09:13:19;92721.47;;;10.43;48.67
28911;BME280;16028;42.642;23.310;2023-03-15T09:15:48;92716.56;;;10.48;48.29
28911;BME280;16028;42.642;23.310;2023-03-15T09:18:14;92709.94;;;10.46;49.30
28911;BME280;16028;42.642;23.310;2023-03-15T09:20:42;92716.28;;;10.43;48.55
28911;BME280;16028;42.642;23.310;2023-03-15T09:23:09;92715.88;;;10.54;49.85
28911;BME280;16028;42.642;23.310;2023-03-15T09:25:35;92728.75;;;10.62;47.31
28911;BME280;16028;42.642;23.310;2023-03-15T09:28:02;92715.59;;;10.64;48.07
28911;BME280;16028;42.642;23.310;2023-03-15T09:30:29;92721.69;;;10.56;47.02
28911;BME280;16028;42.642;23.310;2023-03-15T09:32:55;92712.75;;;10.59;50.30
28911;BME280;16028;42.642;23.310;2023-03-15T09:35:22;92705.72;;;10.59;47.99
28911;BME280;16028;42.642;23.310;2023-03-15T09:37:50;92700.69;;;10.73;46.22
28911;BME280;16028;42.642;23.310;2023-03-15T09:40:18;92698.91;;;10.88;47.93
28911;BME280;16028;42.642;23.310;2023-03-15T09:42:53;92697.28;;;10.87;48.80
28911;BME280;16028;42.642;23.310;2023-03-15T09:45:23;92696.91;;;10.90;47.05
28911;BME280;16028;42.642;23.310;2023-03-15T09:47:53;92692.16;;;10.93;47.40
28911;BME280;16028;42.642;23.310;2023-03-15T09:50:23;92688.38;;;10.96;49.13
28911;BME280;16028;42.642;23.310;2023-03-15T09:52:53;92689.06;;;11.04;47.53
28911;BME280;16028;42.642;23.310;2023-03-15T09:55:21;92677.75;;;11.12;47.98
28911;BME280;16028;42.642;23.310;2023-03-15T09:57:49;92688.53;;;11.09;47.11
28911;BME280;16028;42.642;23.310;2023-03-15T10:00:23;92674.91;;;11.07;45.60
28911;BME280;16028;42.642;23.310;2023-03-15T10:02:56;92683.44;;;11.01;47.32
28911;BME280;16028;42.642;23.310;2023-03-15T10:05:30;92695.81;;;10.99;48.38
28911;BME280;16028;42.642;23.310;2023-03-15T10:07:59;92689.66;;;11.21;46.36
28911;BME280;16028;42.642;23.310;2023-03-15T10:10:27;92682.59;;;11.15;47.85
28911;BME280;16028;42.642;23.310;2023-03-15T10:13:04;92687.81;;;11.15;46.76
28911;BME280;16028;42.642;23.310;2023-03-15T10:15:35;92686.16;;;11.29;45.42
28911;BME280;16028;42.642;23.310;2023-03-15T10:18:13;92687.50;;;11.25;45.78
28911;BME280;16028;42.642;23.310;2023-03-15T10:20:43;92684.91;;;11.25;47.91
28911;BME280;16028;42.642;23.310;2023-03-15T10:23:15;92689.75;;;11.28;47.76
28911;BME280;16028;42.642;23.310;2023-03-15T10:25:45;92681.75;;;11.29;46.32
28911;BME280;16028;42.642;23.310;2023-03-15T10:28:12;92687.22;;;11.34;45.58
28911;BME280;16028;42.642;23.310;2023-03-15T10:30:41;92680.44;;;11.40;44.69
28911;BME280;16028;42.642;23.310;2023-03-15T10:33:12;92675.81;;;11.35;46.54
28911;BME280;16028;42.642;23.310;2023-03-15T10:35:42;92673.72;;;11.45;46.73
28911;BME280;16028;42.642;23.310;2023-03-15T10:38:14;92679.84;;;11.38;47.35
28911;BME280;16028;42.642;23.310;2023-03-15T10:40:41;92682.00;;;11.34;46.66
28911;BME280;16028;42.642;23.310;2023-03-15T10:43:12;92688.19;;;11.33;45.64
28911;BME280;16028;42.642;23.310;2023-03-15T10:45:42;92683.78;;;11.34;47.93
28911;BME280;16028;42.642;23.310;2023-03-15T10:48:11;92681.47;;;11.39;45.94
28911;BME280;16028;42.642;23.310;2023-03-15T10:50:38;92681.75;;;11.29;46.48
28911;BME280;16028;42.642;23.310;2023-03-15T10:53:07;92680.06;;;11.43;45.24
28911;BME280;16028;42.642;23.310;2023-03-15T10:55:40;92687.28;;;11.41;45.95
28911;BME280;16028;42.642;23.310;2023-03-15T10:58:18;92693.66;;;11.38;45.83
28911;BME280;16028;42.642;23.310;2023-03-15T11:00:47;92677.16;;;11.31;46.71
28911;BME280;16028;42.642;23.310;2023-03-15T11:03:15;92679.34;;;11.28;46.91
28911;BME280;16028;42.642;23.310;2023-03-15T11:05:42;92679.88;;;11.23;46.50
28911;BME280;16028;42.642;23.310;2023-03-15T11:08:10;92671.53;;;11.28;46.28
28911;BME280;16028;42.642;23.310;2023-03-15T11:10:38;92674.38;;;11.33;46.13
28911;BME280;16028;42.642;23.310;2023-03-15T11:13:09;92671.59;;;11.34;47.18
28911;BME280;16028;42.642;23.310;2023-03-15T11:15:36;92669.13;;;11.26;46.39
28911;BME280;16028;42.642;23.310;2023-03-15T11:18:03;92662.66;;;11.22;45.66
28911;BME280;16028;42.642;23.310;2023-03-15T11:20:30;92664.63;;;11.20;45.84
28911;BME280;16028;42.642;23.310;2023-03-15T11:22:59;92664.81;;;11.19;47.97
28911;BME280;16028;42.642;23.310;2023-03-15T11:25:27;92666.16;;;11.14;48.56
28911;BME280;16028;42.642;23.310;2023-03-15T11:27:56;92668.69;;;11.23;46.88
28911;BME280;16028;42.642;23.310;2023-03-15T11:30:26;92674.66;;;11.23;46.63
28911;BME280;16028;42.642;23.310;2023-03-15T11:32:54;92669.34;;;11.31;45.48
28911;BME280;16028;42.642;23.310;2023-03-15T11:35:21;92666.75;;;11.31;44.87
28911;BME280;16028;42.642;23.310;2023-03-15T11:37:50;92656.47;;;11.44;45.24
28911;BME280;16028;42.642;23.310;2023-03-15T11:40:20;92661.09;;;11.49;46.75
28911;BME280;16028;42.642;23.310;2023-03-15T11:42:48;92660.19;;;11.35;47.84
28911;BME280;16028;42.642;23.310;2023-03-15T11:45:19;92659.56;;;11.33;49.50
28911;BME280;16028;42.642;23.310;2023-03-15T11:47:50;92651.38;;;11.36;49.80
28911;BME280;16028;42.642;23.310;2023-03-15T11:50:18;92644.81;;;11.40;48.31
28911;BME280;16028;42.642;23.310;2023-03-15T11:52:46;92654.25;;;11.41;47.98
28911;BME280;16028;42.642;23.310;2023-03-15T11:55:15;92646.38;;;11.35;48.24
28911;BME280;16028;42.642;23.310;2023-03-15T11:57:42;92651.38;;;11.57;46.98
28911;BME280;16028;42.642;23.310;2023-03-15T12:02:56;92650.38;;;11.58;48.47
28911;BME280;16028;42.642;23.310;2023-03-15T12:05:42;92650.16;;;11.53;48.75
28911;BME280;16028;42.642;23.310;2023-03-15T12:08:15;92643.13;;;11.54;49.09
28911;BME280;16028;42.642;23.310;2023-03-15T12:10:42;92632.66;;;11.47;50.49
28911;BME280;16028;42.642;23.310;2023-03-15T12:15:58;92630.06;;;11.47;50.27
28911;BME280;16028;42.642;23.310;2023-03-15T12:18:28;92624.97;;;11.39;51.88
28911;BME280;16028;42.642;23.310;2023-03-15T12:20:57;92622.00;;;11.42;50.33
28911;BME280;16028;42.642;23.310;2023-03-15T12:23:32;92621.38;;;11.40;50.51
28911;BME280;16028;42.642;23.310;2023-03-15T12:26:04;92627.66;;;11.25;50.44
28911;BME280;16028;42.642;23.310;2023-03-15T12:28:33;92630.31;;;11.31;50.45
28911;BME280;16028;42.642;23.310;2023-03-15T12:31:01;92633.41;;;11.20;50.58
28911;BME280;16028;42.642;23.310;2023-03-15T12:33:29;92627.81;;;11.23;51.16
28911;BME280;16028;42.642;23.310;2023-03-15T12:36:02;92615.63;;;11.24;51.86
28911;BME280;16028;42.642;23.310;2023-03-15T12:38:34;92611.66;;;11.28;51.76
28911;BME280;16028;42.642;23.310;2023-03-15T12:41:01;92618.78;;;11.19;52.53
28911;BME280;16028;42.642;23.310;2023-03-15T12:43:35;92620.28;;;11.28;51.73
28911;BME280;16028;42.642;23.310;2023-03-15T12:46:02;92615.25;;;11.27;51.26
28911;BME280;16028;42.642;23.310;2023-03-15T12:48:30;92618.72;;;11.12;52.54
28911;BME280;16028;42.642;23.310;2023-03-15T12:50:57;92613.38;;;11.21;52.66
28911;BME280;16028;42.642;23.310;2023-03-15T12:53:31;92609.19;;;11.20;52.51
28911;BME280;16028;42.642;23.310;2023-03-15T12:56:15;92606.09;;;11.09;53.28
28911;BME280;16028;42.642;23.310;2023-03-15T12:58:45;92619.47;;;11.06;53.60
28911;BME280;16028;42.642;23.310;2023-03-15T13:01:12;92620.06;;;11.08;52.31
28911;BME280;16028;42.642;23.310;2023-03-15T13:03:42;92618.91;;;11.11;50.90
28911;BME280;16028;42.642;23.310;2023-03-15T13:06:11;92608.03;;;11.07;52.60